Caturama, Brazil
Current Conditions -  °F | °C
As of 12:00 PM on Friday 19 Dec 2014 (Local Time) from SBQV Reporting Station
Scattered Clouds Scattered Clouds  
Wind Chill: 79°   Ceiling: Unl
Heat Index: 81°   Visibility: 6mi
Dew Point: 70°   Wind: 8mph
Humidity: 74%   Direction: 340°NNW
Pressure: 30.03"   Gusts: NA
Location:  13.33°S, 42.29°W
Report Text: SBQV 191500Z 34007KT 9999 FEW015TCU SCT018 26/21 Q1017
Loading
Personal Weather Stations






























Interactive Weather Map New forecast layout! Learn more

10-Day Weather Forecast

Advertisements
Track Severe Weather on mobile